createdAt,value
2019-02-05T00:01:07.290Z,76.44
2019-02-05T00:03:39.468Z,76.50
2019-02-05T00:06:11.793Z,76.51
2019-02-05T00:08:44.331Z,76.48
2019-02-05T00:11:16.523Z,76.54
2019-02-05T00:13:48.857Z,76.50
2019-02-05T00:16:22.288Z,76.50
2019-02-05T00:18:54.575Z,76.51
2019-02-05T00:21:26.823Z,76.54
2019-02-05T00:24:00.305Z,76.51
2019-02-05T00:26:32.556Z,76.52
2019-02-05T00:29:04.766Z,76.50
2019-02-05T00:31:37.437Z,76.43
2019-02-05T00:34:09.676Z,76.51
2019-02-05T00:36:41.992Z,76.48
2019-02-05T00:39:14.248Z,76.50
2019-02-05T00:41:46.459Z,76.45
2019-02-05T00:44:18.943Z,76.47
2019-02-05T00:46:51.397Z,76.44
2019-02-05T00:49:23.758Z,76.28
2019-02-05T00:51:56.120Z,76.40
2019-02-05T00:54:28.244Z,76.36
2019-02-05T00:57:00.788Z,76.40
2019-02-05T00:59:32.877Z,76.50
2019-02-05T01:02:05.337Z,76.43
2019-02-05T01:04:38.437Z,76.46
2019-02-05T01:07:10.704Z,76.39
2019-02-05T01:09:42.976Z,76.41
2019-02-05T01:12:15.094Z,76.42
2019-02-05T01:14:47.596Z,76.50
2019-02-05T01:17:20.197Z,76.65
2019-02-05T01:19:52.777Z,76.49
2019-02-05T01:22:27.362Z,76.52
2019-02-05T01:24:59.628Z,76.58
2019-02-05T01:27:31.835Z,76.47
2019-02-05T01:30:04.159Z,76.54
2019-02-05T01:32:36.357Z,76.54
2019-02-05T01:35:08.769Z,76.50
2019-02-05T01:37:40.961Z,76.12
2019-02-05T01:40:14.142Z,76.27
2019-02-05T01:42:46.704Z,76.24
2019-02-05T01:45:19.668Z,76.27
2019-02-05T01:47:51.650Z,76.24
2019-02-05T01:50:24.943Z,76.20
2019-02-05T01:52:57.167Z,76.17
2019-02-05T01:55:29.649Z,76.13
2019-02-05T01:58:01.882Z,76.10
2019-02-05T02:00:36.046Z,76.13
2019-02-05T02:03:08.525Z,76.08
2019-02-05T02:05:40.997Z,76.06
2019-02-05T02:08:13.548Z,76.13
2019-02-05T02:10:45.781Z,76.08
2019-02-05T02:13:17.926Z,76.03
2019-02-05T02:15:50.415Z,76.08
2019-02-05T02:18:23.022Z,76.05
2019-02-05T02:20:55.261Z,76.03
2019-02-05T02:23:27.496Z,76.02
2019-02-05T02:25:59.909Z,76.05
2019-02-05T02:28:32.014Z,76.02
2019-02-05T02:31:05.114Z,75.93
2019-02-05T02:33:37.342Z,75.94
2019-02-05T02:36:09.795Z,75.90
2019-02-05T02:38:47.403Z,75.98
2019-02-05T02:41:20.010Z,76.03
2019-02-05T02:43:52.236Z,76.00
2019-02-05T02:46:24.966Z,75.89
2019-02-05T02:48:57.284Z,75.94
2019-02-05T02:51:29.501Z,75.89
2019-02-05T02:54:03.042Z,75.85
2019-02-05T02:56:35.252Z,75.81
2019-02-05T02:59:09.260Z,75.81
2019-02-05T03:01:41.481Z,75.90
2019-02-05T03:04:13.699Z,75.96
2019-02-05T03:06:45.868Z,75.98
2019-02-05T03:09:18.317Z,76.10
2019-02-05T03:11:50.663Z,76.00
2019-02-05T03:14:23.085Z,75.92
2019-02-05T03:16:55.705Z,76.01
2019-02-05T03:19:28.394Z,75.92
2019-02-05T03:22:00.714Z,76.03
2019-02-05T03:24:33.306Z,76.01
2019-02-05T03:27:16.924Z,75.93
2019-02-05T03:29:39.360Z,76.01
2019-02-05T03:32:12.013Z,75.99
2019-02-05T03:34:44.068Z,75.99
2019-02-05T03:37:16.519Z,76.04
2019-02-05T03:39:48.688Z,76.10
2019-02-05T03:42:21.595Z,76.14
2019-02-05T03:44:57.131Z,76.08
2019-02-05T03:47:29.910Z,76.08
2019-02-05T03:50:02.058Z,76.16
2019-02-05T03:52:39.033Z,76.09
2019-02-05T03:55:28.044Z,76.02
2019-02-05T03:58:21.772Z,75.96
2019-02-05T04:01:11.982Z,75.92
2019-02-05T04:04:02.815Z,75.83
2019-02-05T04:06:51.969Z,75.75
2019-02-05T04:09:43.700Z,75.72
2019-02-05T04:12:37.196Z,75.71
2019-02-05T04:15:24.129Z,75.73
2019-02-05T04:18:15.086Z,75.59
2019-02-05T04:21:08.834Z,75.65
2019-02-05T04:23:49.566Z,75.57
2019-02-05T04:26:27.865Z,75.49
2019-02-05T04:29:17.530Z,75.59
2019-02-05T04:32:09.666Z,75.57
2019-02-05T04:34:57.566Z,75.54
2019-02-05T04:37:57.260Z,75.51
2019-02-05T04:40:51.781Z,75.53
2019-02-05T04:43:40.809Z,75.61
2019-02-05T04:46:49.560Z,75.45
2019-02-05T04:49:38.843Z,75.57
2019-02-05T04:52:28.191Z,75.54
2019-02-05T04:55:21.690Z,75.55
2019-02-05T04:58:12.319Z,75.53
2019-02-05T05:01:09.304Z,75.55
2019-02-05T05:03:46.376Z,75.47
2019-02-05T05:06:22.672Z,75.48
2019-02-05T05:09:19.671Z,75.48
2019-02-05T05:11:52.000Z,75.48
2019-02-05T05:14:24.124Z,76.05
2019-02-05T05:16:56.784Z,75.84
2019-02-05T05:19:28.823Z,75.70
2019-02-05T05:22:01.153Z,75.49
2019-02-05T05:24:33.703Z,75.47
2019-02-05T05:27:05.992Z,75.35
2019-02-05T05:29:38.305Z,75.30
2019-02-05T05:32:10.459Z,75.68
2019-02-05T05:34:42.773Z,76.16
2019-02-05T05:37:14.273Z,76.22
2019-02-05T05:39:46.598Z,76.42
2019-02-05T05:42:18.894Z,76.48
2019-02-05T05:44:51.230Z,76.55
2019-02-05T05:47:23.456Z,76.58
2019-02-05T05:49:55.796Z,76.64
2019-02-05T05:52:27.983Z,76.63
2019-02-05T05:55:00.425Z,76.62
2019-02-05T05:57:33.464Z,76.54
2019-02-05T06:00:05.810Z,76.61
2019-02-05T06:02:39.932Z,76.58
2019-02-05T06:05:14.252Z,76.59
2019-02-05T06:07:46.649Z,76.61
2019-02-05T06:10:19.123Z,76.68
2019-02-05T06:12:51.459Z,76.54
2019-02-05T06:15:23.719Z,76.48
2019-02-05T06:17:57.622Z,76.56
2019-02-05T06:20:29.775Z,76.54
2019-02-05T06:23:01.971Z,76.57
2019-02-05T06:25:34.010Z,76.59
2019-02-05T06:28:07.561Z,76.66
2019-02-05T06:30:40.106Z,76.51
2019-02-05T06:33:12.772Z,76.65
2019-02-05T06:35:45.012Z,76.47
2019-02-05T06:38:17.263Z,76.23
2019-02-05T06:40:49.384Z,76.42
2019-02-05T06:43:23.936Z,76.35
2019-02-05T06:45:56.154Z,76.25
2019-02-05T06:48:28.312Z,76.46
2019-02-05T06:51:02.404Z,76.35
2019-02-05T06:53:34.927Z,76.35
2019-02-05T06:56:06.980Z,76.23
2019-02-05T06:58:45.990Z,76.30
2019-02-05T07:01:13.359Z,76.31
2019-02-05T07:03:45.661Z,76.32
2019-02-05T07:06:17.752Z,76.18
2019-02-05T07:08:49.985Z,76.31
2019-02-05T07:11:22.440Z,76.23
2019-02-05T07:13:54.860Z,76.33
2019-02-05T07:16:26.979Z,76.24
2019-02-05T07:18:59.314Z,76.21
2019-02-05T07:21:31.610Z,76.20
2019-02-05T07:24:04.160Z,76.05
2019-02-05T07:26:37.835Z,76.08
2019-02-05T07:29:12.082Z,76.15
2019-02-05T07:31:44.502Z,76.13
2019-02-05T07:34:17.752Z,76.04
2019-02-05T07:36:52.016Z,75.91
2019-02-05T07:39:24.242Z,75.87
2019-02-05T07:41:57.672Z,75.80
2019-02-05T07:44:29.800Z,75.73
2019-02-05T07:47:03.088Z,75.81
2019-02-05T07:49:35.252Z,75.75
2019-02-05T07:52:09.393Z,75.72
2019-02-05T07:54:41.551Z,75.68
2019-02-05T07:57:13.699Z,75.67
2019-02-05T07:59:47.137Z,75.63
2019-02-05T08:02:19.502Z,75.61
2019-02-05T08:04:51.596Z,75.58
2019-02-05T08:07:23.643Z,75.52
2019-02-05T08:09:55.783Z,75.45
2019-02-05T08:12:27.975Z,75.78
2019-02-05T08:15:00.352Z,75.83
2019-02-05T08:17:33.615Z,75.93
2019-02-05T08:20:06.078Z,75.93
2019-02-05T08:22:38.250Z,75.90
2019-02-05T08:25:11.240Z,75.91
2019-02-05T08:27:43.558Z,75.89
2019-02-05T08:30:17.588Z,75.86
2019-02-05T08:32:49.698Z,75.73
2019-02-05T08:35:21.732Z,75.75
2019-02-05T08:37:53.982Z,75.74
2019-02-05T08:40:26.200Z,75.60
2019-02-05T08:42:59.348Z,75.73
2019-02-05T08:45:31.836Z,75.66
2019-02-05T08:48:04.103Z,75.30
2019-02-05T08:50:36.134Z,75.52
2019-02-05T08:53:09.430Z,75.59
2019-02-05T08:55:41.555Z,75.47
2019-02-05T08:58:14.312Z,75.39
2019-02-05T09:00:46.579Z,75.47
2019-02-05T09:03:18.697Z,75.17
2019-02-05T09:05:50.916Z,75.37
2019-02-05T09:08:24.147Z,75.35
2019-02-05T09:10:56.643Z,75.35
2019-02-05T09:13:28.783Z,75.33
2019-02-05T09:16:00.864Z,75.27
2019-02-05T09:18:32.934Z,75.22
2019-02-05T09:21:05.059Z,75.15
2019-02-05T09:23:37.560Z,75.05
2019-02-05T09:26:09.856Z,75.07
2019-02-05T09:28:41.863Z,74.94
2019-02-05T09:31:14.028Z,74.88
2019-02-05T09:33:46.266Z,74.64
2019-02-05T09:36:18.328Z,74.69
2019-02-05T09:38:50.560Z,74.76
2019-02-05T09:41:22.676Z,74.70
2019-02-05T09:43:54.970Z,74.61
2019-02-05T09:46:27.167Z,74.67
2019-02-05T09:48:59.160Z,74.67
2019-02-05T09:51:31.330Z,74.74
2019-02-05T09:54:04.313Z,74.84
2019-02-05T09:56:36.629Z,74.95
2019-02-05T09:59:08.849Z,75.13
2019-02-05T10:01:42.072Z,75.20
2019-02-05T10:04:14.314Z,75.33
2019-02-05T10:06:46.402Z,75.42
2019-02-05T10:09:19.677Z,75.48
2019-02-05T10:11:51.760Z,75.55
2019-02-05T10:14:24.042Z,75.67
2019-02-05T10:16:56.616Z,75.80
2019-02-05T10:19:28.719Z,75.68
2019-02-05T10:22:00.859Z,75.99
2019-02-05T10:24:33.000Z,76.04
2019-02-05T10:27:07.852Z,76.19
2019-02-05T10:29:40.357Z,76.29
2019-02-05T10:32:12.610Z,76.33
2019-02-05T10:34:44.743Z,76.50
2019-02-05T10:37:16.852Z,76.65
2019-02-05T10:39:49.038Z,76.75
2019-02-05T10:42:22.670Z,76.73
2019-02-05T10:44:55.046Z,76.75
2019-02-05T10:47:27.214Z,76.65
2019-02-05T10:50:00.255Z,76.59
2019-02-05T10:52:33.269Z,76.63
2019-02-05T10:55:05.542Z,76.73
2019-02-05T10:57:37.764Z,76.74
2019-02-05T11:00:11.595Z,76.81
2019-02-05T11:02:44.047Z,76.81
2019-02-05T11:05:17.411Z,76.83
2019-02-05T11:07:49.837Z,76.81
2019-02-05T11:10:22.211Z,76.85
2019-02-05T11:12:55.294Z,76.86
2019-02-05T11:15:32.241Z,76.91
2019-02-05T11:18:04.538Z,76.88
2019-02-05T11:20:36.805Z,76.90
2019-02-05T11:23:09.298Z,76.94
2019-02-05T11:25:41.236Z,76.95
2019-02-05T11:28:13.407Z,76.95
2019-02-05T11:30:47.221Z,76.93
2019-02-05T11:33:19.903Z,76.92
2019-02-05T11:35:51.997Z,76.98
2019-02-05T11:38:24.442Z,76.99
2019-02-05T11:40:56.821Z,76.99
2019-02-05T11:43:29.321Z,76.98
2019-02-05T11:46:02.790Z,77.01
2019-02-05T11:48:34.821Z,76.99
2019-02-05T11:51:06.977Z,76.99
2019-02-05T11:53:39.622Z,77.03
2019-02-05T11:56:11.671Z,77.04
2019-02-05T11:58:44.543Z,77.06
2019-02-05T12:01:23.049Z,77.04
2019-02-05T12:03:55.045Z,77.09
2019-02-05T12:06:28.231Z,77.08
2019-02-05T12:09:00.267Z,77.08
2019-02-05T12:11:35.026Z,77.11
2019-02-05T12:14:06.963Z,77.16
2019-02-05T12:16:40.168Z,77.17
2019-02-05T12:19:12.222Z,77.19
2019-02-05T12:21:44.493Z,77.16
2019-02-05T12:24:16.856Z,77.13
2019-02-05T12:26:49.230Z,77.19
2019-02-05T12:29:21.159Z,77.24
2019-02-05T12:31:53.390Z,77.23
2019-02-05T12:34:25.516Z,77.21
2019-02-05T12:36:59.050Z,77.20
2019-02-05T12:39:31.074Z,77.22
2019-02-05T12:42:04.146Z,77.21
2019-02-05T12:44:36.393Z,77.22
2019-02-05T12:47:09.522Z,77.25
2019-02-05T12:49:41.938Z,77.21
2019-02-05T12:52:13.748Z,77.18
2019-02-05T12:54:46.095Z,77.17
2019-02-05T12:57:18.165Z,77.17
2019-02-05T12:59:50.538Z,77.16
2019-02-05T13:02:22.846Z,77.18
2019-02-05T13:04:55.052Z,77.19
2019-02-05T13:07:27.307Z,77.19
2019-02-05T13:10:00.756Z,77.20
2019-02-05T13:12:32.943Z,77.21
2019-02-05T13:15:06.322Z,77.21
2019-02-05T13:17:39.543Z,77.19
2019-02-05T13:20:13.768Z,77.20
2019-02-05T13:22:46.060Z,77.20
2019-02-05T13:25:20.855Z,77.22
2019-02-05T13:27:53.234Z,77.20
2019-02-05T13:30:28.832Z,77.23
2019-02-05T13:33:02.069Z,77.22
2019-02-05T13:35:35.159Z,77.23
2019-02-05T13:38:07.525Z,77.21
2019-02-05T13:40:40.026Z,77.21
2019-02-05T13:43:16.808Z,77.21
2019-02-05T13:45:49.135Z,77.23
2019-02-05T13:48:21.171Z,77.20
2019-02-05T13:50:53.303Z,77.21
2019-02-05T13:53:25.643Z,77.21
2019-02-05T13:55:58.142Z,77.19
2019-02-05T13:58:30.149Z,77.16
2019-02-05T14:01:02.435Z,77.19
2019-02-05T14:03:34.744Z,77.15
2019-02-05T14:06:07.015Z,77.20
2019-02-05T14:08:38.895Z,77.16
2019-02-05T14:11:11.285Z,77.16
2019-02-05T14:13:43.511Z,77.18
2019-02-05T14:16:15.962Z,77.28
2019-02-05T14:18:54.823Z,77.34
2019-02-05T14:21:22.011Z,77.10
2019-02-05T14:23:54.506Z,76.98
2019-02-05T14:26:27.271Z,77.09
2019-02-05T14:28:59.315Z,77.14
2019-02-05T14:31:31.764Z,77.16
2019-02-05T14:34:03.985Z,77.13
2019-02-05T14:36:37.368Z,77.11
2019-02-05T14:39:10.763Z,76.98
2019-02-05T14:41:43.116Z,76.87
2019-02-05T14:44:15.230Z,76.93
2019-02-05T14:46:47.555Z,76.94
2019-02-05T14:49:19.728Z,76.88
2019-02-05T14:51:53.961Z,76.83
2019-02-05T14:54:26.172Z,76.87
2019-02-05T14:56:58.973Z,77.17
2019-02-05T14:59:31.611Z,77.22
2019-02-05T15:02:03.921Z,77.26
2019-02-05T15:04:36.192Z,77.28
2019-02-05T15:07:08.545Z,77.27
2019-02-05T15:09:40.793Z,77.25
2019-02-05T15:12:13.223Z,77.19
2019-02-05T15:14:45.355Z,77.21
2019-02-05T15:17:17.575Z,77.16
2019-02-05T15:19:49.564Z,77.15
2019-02-05T15:22:21.715Z,77.11
2019-02-05T15:24:53.765Z,77.06
2019-02-05T15:27:26.294Z,77.07
2019-02-05T15:29:58.523Z,77.03
2019-02-05T15:32:55.696Z,76.92
2019-02-05T15:35:27.706Z,76.96
2019-02-05T15:38:00.124Z,77.11
2019-02-05T15:40:32.443Z,77.15
2019-02-05T15:43:06.164Z,76.62
2019-02-05T15:45:38.357Z,76.80
2019-02-05T15:48:10.612Z,76.83
2019-02-05T15:50:42.799Z,77.05
2019-02-05T15:53:14.969Z,77.08
2019-02-05T15:55:47.705Z,77.17
2019-02-05T15:58:20.396Z,77.24
2019-02-05T16:00:53.040Z,77.30
2019-02-05T16:03:25.274Z,77.34
2019-02-05T16:05:57.517Z,77.28
2019-02-05T16:08:29.804Z,77.34
2019-02-05T16:11:02.041Z,77.41
2019-02-05T16:13:34.530Z,77.36
2019-02-05T16:16:06.661Z,77.32
2019-02-05T16:18:38.961Z,76.83
2019-02-05T16:21:11.196Z,76.31
2019-02-05T16:23:43.531Z,76.36
2019-02-05T16:26:15.670Z,76.36
2019-02-05T16:28:48.318Z,76.78
2019-02-05T16:31:20.408Z,76.78
2019-02-05T16:33:52.744Z,76.71
2019-02-05T16:36:25.002Z,76.77
2019-02-05T16:38:57.269Z,76.76
2019-02-05T16:41:29.849Z,76.79
2019-02-05T16:44:02.206Z,76.55
2019-02-05T16:46:34.454Z,76.60
2019-02-05T16:49:07.345Z,76.51
2019-02-05T16:51:39.502Z,76.47
2019-02-05T16:54:11.829Z,76.65
2019-02-05T16:56:44.158Z,76.62
2019-02-05T16:59:17.344Z,76.69
2019-02-05T17:01:49.418Z,76.51
2019-02-05T17:04:21.826Z,76.49
2019-02-05T17:06:54.129Z,76.45
2019-02-05T17:09:27.680Z,76.55
2019-02-05T17:12:00.068Z,76.89
2019-02-05T17:14:33.621Z,77.02
2019-02-05T17:17:05.826Z,76.99
2019-02-05T17:19:38.226Z,77.01
2019-02-05T17:22:10.472Z,76.97
2019-02-05T17:24:43.715Z,77.10
2019-02-05T17:27:15.922Z,77.03
2019-02-05T17:29:50.090Z,77.07
2019-02-05T17:32:22.061Z,77.08
2019-02-05T17:34:54.215Z,77.01
2019-02-05T17:37:26.399Z,77.12
2019-02-05T17:39:58.645Z,77.14
2019-02-05T17:42:30.927Z,77.11
2019-02-05T17:45:03.194Z,77.05
2019-02-05T17:47:35.508Z,77.00
2019-02-05T17:50:07.953Z,77.08
2019-02-05T17:52:40.115Z,76.75
2019-02-05T17:55:12.513Z,77.08
2019-02-05T17:57:46.655Z,77.25
2019-02-05T18:00:25.508Z,77.17
2019-02-05T18:02:58.710Z,77.06
2019-02-05T18:05:34.806Z,77.17
2019-02-05T18:08:05.807Z,77.18
2019-02-05T18:10:38.127Z,77.07
2019-02-05T18:13:10.442Z,77.06
2019-02-05T18:15:42.409Z,77.10
2019-02-05T18:18:14.597Z,77.20
2019-02-05T18:20:46.678Z,77.09
2019-02-05T18:23:18.993Z,76.95
2019-02-05T18:25:51.187Z,77.01
2019-02-05T18:28:23.341Z,77.06
2019-02-05T18:30:56.130Z,76.98
2019-02-05T18:33:28.300Z,76.99
2019-02-05T18:36:00.607Z,77.07
2019-02-05T18:38:32.943Z,77.10
2019-02-05T18:41:05.108Z,77.22
2019-02-05T18:43:37.362Z,77.32
2019-02-05T18:46:09.536Z,77.61
2019-02-05T18:48:41.886Z,77.79
2019-02-05T18:51:14.304Z,77.80
2019-02-05T18:53:46.814Z,77.84
2019-02-05T18:56:19.151Z,77.93
2019-02-05T18:58:51.373Z,77.99
2019-02-05T19:01:23.702Z,78.04
2019-02-05T19:03:56.212Z,78.01
2019-02-05T19:06:29.449Z,78.04
2019-02-05T19:09:05.999Z,78.07
2019-02-05T19:11:38.158Z,78.11
2019-02-05T19:14:10.432Z,78.10
2019-02-05T19:16:42.739Z,78.10
2019-02-05T19:19:16.317Z,78.17
2019-02-05T19:21:48.693Z,78.20
2019-02-05T19:24:38.790Z,78.09
2019-02-05T19:27:11.160Z,78.18
2019-02-05T19:29:43.281Z,78.12
2019-02-05T19:32:18.928Z,77.92
2019-02-05T19:34:51.169Z,78.06
2019-02-05T19:37:23.522Z,77.61
2019-02-05T19:39:56.429Z,77.66
2019-02-05T19:42:28.903Z,77.71
2019-02-05T19:45:19.146Z,77.71
2019-02-05T19:47:51.587Z,77.28
2019-02-05T19:50:23.700Z,77.56
2019-02-05T19:52:57.036Z,77.73
2019-02-05T19:55:29.384Z,77.88
2019-02-05T19:58:02.346Z,77.93
2019-02-05T20:00:34.591Z,77.96
2019-02-05T20:03:06.903Z,77.98
2019-02-05T20:05:39.491Z,77.98
2019-02-05T20:08:11.971Z,77.87
2019-02-05T20:10:45.448Z,77.71
2019-02-05T20:13:17.777Z,77.83
2019-02-05T20:15:51.264Z,77.86
2019-02-05T20:18:23.929Z,77.76
2019-02-05T20:20:56.012Z,77.84
2019-02-05T20:23:28.433Z,77.66
2019-02-05T20:26:00.558Z,77.69
2019-02-05T20:28:32.891Z,77.75
2019-02-05T20:31:05.159Z,77.74
2019-02-05T20:33:37.383Z,77.77
2019-02-05T20:36:09.522Z,77.84
2019-02-05T20:38:41.733Z,77.90
2019-02-05T20:41:14.099Z,77.84
2019-02-05T20:43:46.439Z,77.94
2019-02-05T20:46:18.495Z,77.94
2019-02-05T20:48:52.923Z,78.01
2019-02-05T20:51:25.152Z,77.91
2019-02-05T20:53:59.743Z,77.89
2019-02-05T20:56:32.022Z,77.85
2019-02-05T20:59:24.939Z,77.79
2019-02-05T21:01:57.664Z,77.84
2019-02-05T21:04:29.822Z,77.69
2019-02-05T21:07:02.223Z,77.77
2019-02-05T21:09:34.489Z,77.77
2019-02-05T21:12:07.142Z,77.50
2019-02-05T21:14:40.110Z,77.59
2019-02-05T21:17:12.496Z,77.61
2019-02-05T21:19:44.740Z,77.67
2019-02-05T21:22:17.259Z,77.66
2019-02-05T21:24:50.015Z,77.65
2019-02-05T21:27:22.343Z,77.51
2019-02-05T21:29:54.495Z,77.75
2019-02-05T21:32:26.802Z,77.68
2019-02-05T21:34:59.020Z,77.66
2019-02-05T21:37:31.259Z,77.70
2019-02-05T21:40:03.395Z,77.66
2019-02-05T21:42:36.647Z,77.70
2019-02-05T21:45:08.869Z,77.74
2019-02-05T21:47:41.008Z,77.71
2019-02-05T21:50:13.693Z,77.78
2019-02-05T21:52:48.595Z,77.72
2019-02-05T21:55:19.956Z,77.73
2019-02-05T21:57:52.123Z,77.76
2019-02-05T22:00:25.469Z,77.82
2019-02-05T22:02:57.709Z,77.76
2019-02-05T22:05:29.830Z,77.70
2019-02-05T22:08:02.400Z,77.73
2019-02-05T22:10:35.154Z,77.79
2019-02-05T22:13:07.617Z,77.73
2019-02-05T22:15:39.651Z,77.74
2019-02-05T22:18:11.823Z,77.69
2019-02-05T22:20:43.991Z,77.74
2019-02-05T22:23:16.665Z,77.76
2019-02-05T22:25:48.797Z,77.82
2019-02-05T22:28:21.074Z,77.83
2019-02-05T22:30:54.488Z,77.83
2019-02-05T22:33:28.171Z,77.83
2019-02-05T22:36:00.560Z,77.66
2019-02-05T22:38:32.738Z,77.65
2019-02-05T22:41:04.921Z,77.53
2019-02-05T22:43:37.076Z,77.64
2019-02-05T22:46:09.218Z,77.65
2019-02-05T22:48:41.704Z,77.46
2019-02-05T22:51:13.885Z,77.59
2019-02-05T22:53:46.258Z,77.62
2019-02-05T22:56:18.433Z,77.57
2019-02-05T22:58:50.904Z,77.67
2019-02-05T23:01:28.577Z,77.69
2019-02-05T23:04:03.617Z,77.64
2019-02-05T23:06:53.086Z,77.69
2019-02-05T23:09:27.406Z,77.67
2019-02-05T23:12:22.672Z,77.71
2019-02-05T23:14:56.622Z,77.61
2019-02-05T23:17:28.808Z,77.62
2019-02-05T23:20:00.995Z,77.63
2019-02-05T23:22:33.245Z,77.68
2019-02-05T23:25:05.449Z,77.62
2019-02-05T23:27:37.923Z,77.69
2019-02-05T23:30:13.463Z,77.62
2019-02-05T23:32:45.872Z,77.62
2019-02-05T23:35:18.165Z,77.66
2019-02-05T23:37:51.077Z,77.71
2019-02-05T23:40:23.273Z,77.66
2019-02-05T23:42:55.574Z,77.65
2019-02-05T23:45:27.814Z,77.62
2019-02-05T23:48:00.390Z,77.56
2019-02-05T23:50:32.553Z,77.62
2019-02-05T23:53:04.834Z,77.71
2019-02-05T23:55:36.995Z,77.59
2019-02-05T23:58:09.504Z,77.48
